sensor_id;sensor_type;location;lat;lon;timestamp;P1;durP1;ratioP1;P2;durP2;ratioP2
24619;SDS011;12763;55.802;37.404;2024-01-11T00:00:48;2.63;;;1.77;;
24619;SDS011;12763;55.802;37.404;2024-01-11T00:03:14;10.23;;;3.40;;
24619;SDS011;12763;55.802;37.404;2024-01-11T00:05:40;7.03;;;2.55;;
24619;SDS011;12763;55.802;37.404;2024-01-11T00:08:07;5.35;;;2.40;;
24619;SDS011;12763;55.802;37.404;2024-01-11T00:10:33;4.93;;;2.90;;
24619;SDS011;12763;55.802;37.404;2024-01-11T00:12:59;9.68;;;2.67;;
24619;SDS011;12763;55.802;37.404;2024-01-11T00:15:25;4.47;;;2.15;;
24619;SDS011;12763;55.802;37.404;2024-01-11T00:17:51;4.30;;;2.45;;
24619;SDS011;12763;55.802;37.404;2024-01-11T00:20:17;6.30;;;3.00;;
24619;SDS011;12763;55.802;37.404;2024-01-11T00:22:43;3.28;;;2.05;;
24619;SDS011;12763;55.802;37.404;2024-01-11T00:25:08;3.67;;;2.35;;
24619;SDS011;12763;55.802;37.404;2024-01-11T00:27:34;5.03;;;2.53;;
24619;SDS011;12763;55.802;37.404;2024-01-11T00:30:00;2.10;;;1.50;;
24619;SDS011;12763;55.802;37.404;2024-01-11T00:32:27;6.85;;;2.92;;
24619;SDS011;12763;55.802;37.404;2024-01-11T00:34:53;5.82;;;2.63;;
24619;SDS011;12763;55.802;37.404;2024-01-11T00:37:19;5.55;;;2.78;;
24619;SDS011;12763;55.802;37.404;2024-01-11T00:39:45;4.53;;;2.60;;
24619;SDS011;12763;55.802;37.404;2024-01-11T00:42:11;5.07;;;2.60;;
24619;SDS011;12763;55.802;37.404;2024-01-11T00:44:37;5.43;;;2.58;;
24619;SDS011;12763;55.802;37.404;2024-01-11T00:47:03;4.93;;;2.10;;
24619;SDS011;12763;55.802;37.404;2024-01-11T00:49:29;2.80;;;1.48;;
24619;SDS011;12763;55.802;37.404;2024-01-11T00:51:55;5.47;;;2.28;;
24619;SDS011;12763;55.802;37.404;2024-01-11T00:54:21;5.05;;;2.28;;
24619;SDS011;12763;55.802;37.404;2024-01-11T00:56:49;4.80;;;2.58;;
24619;SDS011;12763;55.802;37.404;2024-01-11T00:59:14;3.92;;;2.20;;
24619;SDS011;12763;55.802;37.404;2024-01-11T01:01:45;4.60;;;2.15;;
24619;SDS011;12763;55.802;37.404;2024-01-11T01:04:12;5.10;;;2.40;;
24619;SDS011;12763;55.802;37.404;2024-01-11T01:06:38;4.00;;;2.20;;
24619;SDS011;12763;55.802;37.404;2024-01-11T01:09:04;5.47;;;2.40;;
24619;SDS011;12763;55.802;37.404;2024-01-11T01:11:30;2.05;;;1.55;;
24619;SDS011;12763;55.802;37.404;2024-01-11T01:13:56;7.47;;;2.65;;
24619;SDS011;12763;55.802;37.404;2024-01-11T01:16:22;5.82;;;2.47;;
24619;SDS011;12763;55.802;37.404;2024-01-11T01:18:48;5.35;;;2.72;;
24619;SDS011;12763;55.802;37.404;2024-01-11T01:21:14;4.43;;;2.05;;
24619;SDS011;12763;55.802;37.404;2024-01-11T01:23:40;2.47;;;1.80;;
24619;SDS011;12763;55.802;37.404;2024-01-11T01:26:06;4.95;;;2.13;;
24619;SDS011;12763;55.802;37.404;2024-01-11T01:28:32;5.03;;;2.38;;
24619;SDS011;12763;55.802;37.404;2024-01-11T01:30:58;7.28;;;2.40;;
24619;SDS011;12763;55.802;37.404;2024-01-11T01:33:24;4.10;;;2.20;;
24619;SDS011;12763;55.802;37.404;2024-01-11T01:35:50;3.25;;;1.92;;
24619;SDS011;12763;55.802;37.404;2024-01-11T01:38:16;4.53;;;2.40;;
24619;SDS011;12763;55.802;37.404;2024-01-11T01:40:43;4.35;;;2.17;;
24619;SDS011;12763;55.802;37.404;2024-01-11T01:43:09;3.47;;;1.90;;
24619;SDS011;12763;55.802;37.404;2024-01-11T01:45:35;4.28;;;1.80;;
24619;SDS011;12763;55.802;37.404;2024-01-11T01:48:02;3.35;;;2.20;;
24619;SDS011;12763;55.802;37.404;2024-01-11T01:50:28;5.55;;;2.00;;
24619;SDS011;12763;55.802;37.404;2024-01-11T01:52:54;4.03;;;2.08;;
24619;SDS011;12763;55.802;37.404;2024-01-11T01:55:21;7.57;;;1.90;;
24619;SDS011;12763;55.802;37.404;2024-01-11T01:57:49;2.00;;;1.65;;
24619;SDS011;12763;55.802;37.404;2024-01-11T02:00:16;2.03;;;1.50;;
24619;SDS011;12763;55.802;37.404;2024-01-11T02:02:43;2.58;;;1.23;;
24619;SDS011;12763;55.802;37.404;2024-01-11T02:05:11;2.33;;;1.65;;
24619;SDS011;12763;55.802;37.404;2024-01-11T02:07:38;1.77;;;1.10;;
24619;SDS011;12763;55.802;37.404;2024-01-11T02:10:05;3.90;;;1.83;;
24619;SDS011;12763;55.802;37.404;2024-01-11T02:12:34;2.83;;;1.52;;
24619;SDS011;12763;55.802;37.404;2024-01-11T02:15:03;1.75;;;1.55;;
24619;SDS011;12763;55.802;37.404;2024-01-11T02:17:36;4.30;;;1.70;;
24619;SDS011;12763;55.802;37.404;2024-01-11T02:20:02;4.65;;;1.92;;
24619;SDS011;12763;55.802;37.404;2024-01-11T02:22:37;3.22;;;1.50;;
24619;SDS011;12763;55.802;37.404;2024-01-11T02:25:12;1.60;;;1.25;;
24619;SDS011;12763;55.802;37.404;2024-01-11T02:27:47;2.80;;;1.48;;
24619;SDS011;12763;55.802;37.404;2024-01-11T02:30:14;3.75;;;1.30;;
24619;SDS011;12763;55.802;37.404;2024-01-11T02:32:41;1.92;;;1.17;;
24619;SDS011;12763;55.802;37.404;2024-01-11T02:35:12;1.95;;;1.40;;
24619;SDS011;12763;55.802;37.404;2024-01-11T02:37:39;3.15;;;1.70;;
24619;SDS011;12763;55.802;37.404;2024-01-11T02:40:06;2.25;;;1.40;;
24619;SDS011;12763;55.802;37.404;2024-01-11T02:42:34;1.55;;;1.10;;
24619;SDS011;12763;55.802;37.404;2024-01-11T02:45:02;1.85;;;1.25;;
24619;SDS011;12763;55.802;37.404;2024-01-11T02:47:31;1.35;;;1.25;;
24619;SDS011;12763;55.802;37.404;2024-01-11T02:49:57;1.42;;;1.25;;
24619;SDS011;12763;55.802;37.404;2024-01-11T02:52:23;2.30;;;1.00;;
24619;SDS011;12763;55.802;37.404;2024-01-11T02:54:49;3.30;;;1.50;;
24619;SDS011;12763;55.802;37.404;2024-01-11T02:57:15;3.97;;;1.23;;
24619;SDS011;12763;55.802;37.404;2024-01-11T02:59:41;1.08;;;1.00;;
24619;SDS011;12763;55.802;37.404;2024-01-11T03:02:09;1.75;;;0.85;;
24619;SDS011;12763;55.802;37.404;2024-01-11T03:04:35;1.70;;;1.02;;
24619;SDS011;12763;55.802;37.404;2024-01-11T03:07:01;1.63;;;1.00;;
24619;SDS011;12763;55.802;37.404;2024-01-11T03:09:27;2.35;;;1.20;;
24619;SDS011;12763;55.802;37.404;2024-01-11T03:11:53;2.75;;;1.30;;
24619;SDS011;12763;55.802;37.404;2024-01-11T03:14:19;3.70;;;1.25;;
24619;SDS011;12763;55.802;37.404;2024-01-11T03:16:45;2.00;;;1.10;;
24619;SDS011;12763;55.802;37.404;2024-01-11T03:19:10;1.75;;;0.93;;
24619;SDS011;12763;55.802;37.404;2024-01-11T03:21:40;1.17;;;1.02;;
24619;SDS011;12763;55.802;37.404;2024-01-11T03:24:08;1.15;;;1.05;;
24619;SDS011;12763;55.802;37.404;2024-01-11T03:26:33;1.33;;;0.90;;
24619;SDS011;12763;55.802;37.404;2024-01-11T03:29:00;1.38;;;1.17;;
24619;SDS011;12763;55.802;37.404;2024-01-11T03:31:25;2.85;;;0.90;;
24619;SDS011;12763;55.802;37.404;2024-01-11T03:33:51;1.55;;;1.00;;
24619;SDS011;12763;55.802;37.404;2024-01-11T03:36:17;2.63;;;1.48;;
24619;SDS011;12763;55.802;37.404;2024-01-11T03:38:43;5.57;;;1.17;;
24619;SDS011;12763;55.802;37.404;2024-01-11T03:41:09;1.88;;;1.10;;
24619;SDS011;12763;55.802;37.404;2024-01-11T03:43:36;1.75;;;1.00;;
24619;SDS011;12763;55.802;37.404;2024-01-11T03:46:03;2.63;;;0.88;;
24619;SDS011;12763;55.802;37.404;2024-01-11T03:48:29;0.43;;;0.43;;
24619;SDS011;12763;55.802;37.404;2024-01-11T03:50:56;1.75;;;1.10;;
24619;SDS011;12763;55.802;37.404;2024-01-11T03:53:22;2.58;;;1.13;;
24619;SDS011;12763;55.802;37.404;2024-01-11T03:55:48;0.90;;;0.90;;
24619;SDS011;12763;55.802;37.404;2024-01-11T03:58:14;1.20;;;1.10;;
24619;SDS011;12763;55.802;37.404;2024-01-11T04:00:40;2.00;;;1.10;;
24619;SDS011;12763;55.802;37.404;2024-01-11T04:03:06;1.25;;;1.00;;
24619;SDS011;12763;55.802;37.404;2024-01-11T04:05:32;2.13;;;1.15;;
24619;SDS011;12763;55.802;37.404;2024-01-11T04:07:58;1.23;;;0.93;;
24619;SDS011;12763;55.802;37.404;2024-01-11T04:10:27;0.85;;;0.73;;
24619;SDS011;12763;55.802;37.404;2024-01-11T04:12:53;4.72;;;0.82;;
24619;SDS011;12763;55.802;37.404;2024-01-11T04:15:19;1.00;;;0.90;;
24619;SDS011;12763;55.802;37.404;2024-01-11T04:17:45;0.80;;;0.80;;
24619;SDS011;12763;55.802;37.404;2024-01-11T04:20:11;1.88;;;1.10;;
24619;SDS011;12763;55.802;37.404;2024-01-11T04:22:37;3.20;;;1.10;;
24619;SDS011;12763;55.802;37.404;2024-01-11T04:25:03;3.83;;;1.10;;
24619;SDS011;12763;55.802;37.404;2024-01-11T04:27:29;1.05;;;0.77;;
24619;SDS011;12763;55.802;37.404;2024-01-11T04:29:55;3.72;;;0.95;;
24619;SDS011;12763;55.802;37.404;2024-01-11T04:32:21;1.05;;;0.88;;
24619;SDS011;12763;55.802;37.404;2024-01-11T04:34:47;2.53;;;1.00;;
24619;SDS011;12763;55.802;37.404;2024-01-11T04:37:13;1.45;;;1.00;;
24619;SDS011;12763;55.802;37.404;2024-01-11T04:39:39;1.80;;;1.17;;
24619;SDS011;12763;55.802;37.404;2024-01-11T04:42:05;9.07;;;1.25;;
24619;SDS011;12763;55.802;37.404;2024-01-11T04:44:31;0.50;;;0.45;;
24619;SDS011;12763;55.802;37.404;2024-01-11T04:46:57;5.47;;;1.63;;
24619;SDS011;12763;55.802;37.404;2024-01-11T04:49:23;0.63;;;0.63;;
24619;SDS011;12763;55.802;37.404;2024-01-11T04:51:49;2.42;;;1.05;;
24619;SDS011;12763;55.802;37.404;2024-01-11T04:54:15;2.22;;;1.27;;
24619;SDS011;12763;55.802;37.404;2024-01-11T04:56:41;0.73;;;0.73;;
24619;SDS011;12763;55.802;37.404;2024-01-11T04:59:07;1.20;;;1.10;;
24619;SDS011;12763;55.802;37.404;2024-01-11T05:01:32;4.05;;;1.40;;
24619;SDS011;12763;55.802;37.404;2024-01-11T05:03:58;0.98;;;0.90;;
24619;SDS011;12763;55.802;37.404;2024-01-11T05:06:24;3.90;;;1.20;;
24619;SDS011;12763;55.802;37.404;2024-01-11T05:08:51;1.85;;;1.20;;
24619;SDS011;12763;55.802;37.404;2024-01-11T05:11:18;2.10;;;1.50;;
24619;SDS011;12763;55.802;37.404;2024-01-11T05:13:45;1.60;;;1.23;;
24619;SDS011;12763;55.802;37.404;2024-01-11T05:18:50;5.28;;;1.40;;
24619;SDS011;12763;55.802;37.404;2024-01-11T05:21:17;1.20;;;1.10;;
24619;SDS011;12763;55.802;37.404;2024-01-11T05:23:44;1.80;;;1.20;;
24619;SDS011;12763;55.802;37.404;2024-01-11T05:26:10;1.58;;;1.30;;
24619;SDS011;12763;55.802;37.404;2024-01-11T05:28:36;3.38;;;1.30;;
24619;SDS011;12763;55.802;37.404;2024-01-11T05:31:08;1.85;;;1.42;;
24619;SDS011;12763;55.802;37.404;2024-01-11T05:33:36;2.42;;;1.33;;
24619;SDS011;12763;55.802;37.404;2024-01-11T05:36:02;1.38;;;1.23;;
24619;SDS011;12763;55.802;37.404;2024-01-11T05:38:28;5.05;;;1.30;;
24619;SDS011;12763;55.802;37.404;2024-01-11T05:40:55;2.95;;;1.38;;
24619;SDS011;12763;55.802;37.404;2024-01-11T05:43:21;2.78;;;1.25;;
24619;SDS011;12763;55.802;37.404;2024-01-11T05:45:49;3.70;;;1.50;;
24619;SDS011;12763;55.802;37.404;2024-01-11T05:48:15;4.57;;;1.77;;
24619;SDS011;12763;55.802;37.404;2024-01-11T05:50:42;5.07;;;1.35;;
24619;SDS011;12763;55.802;37.404;2024-01-11T05:53:11;3.08;;;1.30;;
24619;SDS011;12763;55.802;37.404;2024-01-11T05:55:37;1.83;;;1.13;;
24619;SDS011;12763;55.802;37.404;2024-01-11T05:58:04;4.70;;;1.55;;
24619;SDS011;12763;55.802;37.404;2024-01-11T06:00:30;5.90;;;1.40;;
24619;SDS011;12763;55.802;37.404;2024-01-11T06:02:57;2.00;;;1.40;;
24619;SDS011;12763;55.802;37.404;2024-01-11T06:05:23;5.80;;;1.35;;
24619;SDS011;12763;55.802;37.404;2024-01-11T06:07:49;3.20;;;1.98;;
24619;SDS011;12763;55.802;37.404;2024-01-11T06:10:15;1.35;;;1.00;;
24619;SDS011;12763;55.802;37.404;2024-01-11T06:12:42;2.80;;;1.38;;
24619;SDS011;12763;55.802;37.404;2024-01-11T06:15:08;2.65;;;1.45;;
24619;SDS011;12763;55.802;37.404;2024-01-11T06:17:35;4.38;;;1.15;;
24619;SDS011;12763;55.802;37.404;2024-01-11T06:20:02;5.15;;;2.85;;
24619;SDS011;12763;55.802;37.404;2024-01-11T06:22:31;2.05;;;1.20;;
24619;SDS011;12763;55.802;37.404;2024-01-11T06:24:58;5.05;;;1.60;;
24619;SDS011;12763;55.802;37.404;2024-01-11T06:27:25;6.95;;;1.33;;
24619;SDS011;12763;55.802;37.404;2024-01-11T06:29:52;2.53;;;1.73;;
24619;SDS011;12763;55.802;37.404;2024-01-11T06:32:18;4.90;;;1.40;;
24619;SDS011;12763;55.802;37.404;2024-01-11T06:34:44;9.07;;;1.73;;
24619;SDS011;12763;55.802;37.404;2024-01-11T06:37:12;1.52;;;1.10;;
24619;SDS011;12763;55.802;37.404;2024-01-11T06:39:38;3.42;;;1.42;;
24619;SDS011;12763;55.802;37.404;2024-01-11T06:42:04;2.45;;;1.40;;
24619;SDS011;12763;55.802;37.404;2024-01-11T06:44:30;3.45;;;1.48;;
24619;SDS011;12763;55.802;37.404;2024-01-11T06:46:56;8.35;;;1.98;;
24619;SDS011;12763;55.802;37.404;2024-01-11T06:49:22;4.20;;;3.22;;
24619;SDS011;12763;55.802;37.404;2024-01-11T06:51:49;1.40;;;1.23;;
24619;SDS011;12763;55.802;37.404;2024-01-11T06:54:15;10.73;;;1.58;;
24619;SDS011;12763;55.802;37.404;2024-01-11T06:56:40;4.03;;;1.88;;
24619;SDS011;12763;55.802;37.404;2024-01-11T06:59:06;5.35;;;1.88;;
24619;SDS011;12763;55.802;37.404;2024-01-11T07:01:33;3.60;;;1.38;;
24619;SDS011;12763;55.802;37.404;2024-01-11T07:03:59;3.40;;;1.38;;
24619;SDS011;12763;55.802;37.404;2024-01-11T07:06:24;1.25;;;1.15;;
24619;SDS011;12763;55.802;37.404;2024-01-11T07:08:50;1.13;;;1.00;;
24619;SDS011;12763;55.802;37.404;2024-01-11T07:11:16;3.25;;;1.08;;
24619;SDS011;12763;55.802;37.404;2024-01-11T07:13:42;2.72;;;1.50;;
24619;SDS011;12763;55.802;37.404;2024-01-11T07:16:08;1.73;;;1.35;;
24619;SDS011;12763;55.802;37.404;2024-01-11T07:18:34;2.15;;;1.42;;
24619;SDS011;12763;55.802;37.404;2024-01-11T07:21:00;2.17;;;0.75;;
24619;SDS011;12763;55.802;37.404;2024-01-11T07:23:26;2.65;;;1.20;;
24619;SDS011;12763;55.802;37.404;2024-01-11T07:25:53;5.93;;;1.38;;
24619;SDS011;12763;55.802;37.404;2024-01-11T07:28:19;5.07;;;1.58;;
24619;SDS011;12763;55.802;37.404;2024-01-11T07:30:53;1.90;;;1.30;;
24619;SDS011;12763;55.802;37.404;2024-01-11T07:33:20;7.70;;;1.40;;
24619;SDS011;12763;55.802;37.404;2024-01-11T07:35:46;2.03;;;1.25;;
24619;SDS011;12763;55.802;37.404;2024-01-11T07:38:14;1.90;;;1.17;;
24619;SDS011;12763;55.802;37.404;2024-01-11T07:40:40;2.17;;;1.60;;
24619;SDS011;12763;55.802;37.404;2024-01-11T07:43:06;3.00;;;1.40;;
24619;SDS011;12763;55.802;37.404;2024-01-11T07:45:32;1.45;;;1.00;;
24619;SDS011;12763;55.802;37.404;2024-01-11T07:47:58;8.73;;;1.25;;
24619;SDS011;12763;55.802;37.404;2024-01-11T07:50:25;2.13;;;1.15;;
24619;SDS011;12763;55.802;37.404;2024-01-11T07:52:51;5.53;;;1.42;;
24619;SDS011;12763;55.802;37.404;2024-01-11T07:55:16;3.28;;;1.10;;
24619;SDS011;12763;55.802;37.404;2024-01-11T07:57:42;2.20;;;1.00;;
24619;SDS011;12763;55.802;37.404;2024-01-11T08:00:08;5.93;;;1.08;;
24619;SDS011;12763;55.802;37.404;2024-01-11T08:02:38;1.85;;;0.90;;
24619;SDS011;12763;55.802;37.404;2024-01-11T08:05:05;2.15;;;1.20;;
24619;SDS011;12763;55.802;37.404;2024-01-11T08:07:31;2.75;;;1.23;;
24619;SDS011;12763;55.802;37.404;2024-01-11T08:09:57;4.60;;;1.20;;
24619;SDS011;12763;55.802;37.404;2024-01-11T08:12:23;1.40;;;1.30;;
24619;SDS011;12763;55.802;37.404;2024-01-11T08:14:50;3.25;;;1.20;;
24619;SDS011;12763;55.802;37.404;2024-01-11T08:17:16;1.90;;;0.95;;
24619;SDS011;12763;55.802;37.404;2024-01-11T08:19:42;1.98;;;1.17;;
24619;SDS011;12763;55.802;37.404;2024-01-11T08:22:09;1.55;;;1.00;;
24619;SDS011;12763;55.802;37.404;2024-01-11T08:24:36;3.83;;;1.33;;
24619;SDS011;12763;55.802;37.404;2024-01-11T08:27:02;5.00;;;1.20;;
24619;SDS011;12763;55.802;37.404;2024-01-11T08:29:28;3.22;;;1.10;;
24619;SDS011;12763;55.802;37.404;2024-01-11T08:31:54;2.53;;;1.30;;
24619;SDS011;12763;55.802;37.404;2024-01-11T08:34:22;6.40;;;1.38;;
24619;SDS011;12763;55.802;37.404;2024-01-11T08:36:49;2.58;;;1.35;;
24619;SDS011;12763;55.802;37.404;2024-01-11T08:39:15;1.50;;;1.10;;
24619;SDS011;12763;55.802;37.404;2024-01-11T08:41:42;2.30;;;1.40;;
24619;SDS011;12763;55.802;37.404;2024-01-11T08:44:08;3.17;;;1.38;;
24619;SDS011;12763;55.802;37.404;2024-01-11T08:46:34;4.78;;;2.35;;
24619;SDS011;12763;55.802;37.404;2024-01-11T08:49:00;3.05;;;0.93;;
24619;SDS011;12763;55.802;37.404;2024-01-11T08:51:29;4.70;;;1.63;;
24619;SDS011;12763;55.802;37.404;2024-01-11T08:53:56;5.93;;;1.65;;
24619;SDS011;12763;55.802;37.404;2024-01-11T08:56:22;3.28;;;0.90;;
24619;SDS011;12763;55.802;37.404;2024-01-11T08:58:48;2.90;;;0.80;;
24619;SDS011;12763;55.802;37.404;2024-01-11T09:01:15;0.68;;;0.60;;
24619;SDS011;12763;55.802;37.404;2024-01-11T09:03:41;0.38;;;0.38;;
24619;SDS011;12763;55.802;37.404;2024-01-11T09:06:07;0.85;;;0.60;;
24619;SDS011;12763;55.802;37.404;2024-01-11T09:08:33;0.52;;;0.40;;
24619;SDS011;12763;55.802;37.404;2024-01-11T09:10:59;0.50;;;0.50;;
24619;SDS011;12763;55.802;37.404;2024-01-11T09:13:26;0.50;;;0.50;;
24619;SDS011;12763;55.802;37.404;2024-01-11T09:15:55;2.45;;;0.70;;
24619;SDS011;12763;55.802;37.404;2024-01-11T09:18:21;1.00;;;0.60;;
24619;SDS011;12763;55.802;37.404;2024-01-11T09:20:47;0.55;;;0.55;;
24619;SDS011;12763;55.802;37.404;2024-01-11T09:23:14;1.02;;;0.90;;
24619;SDS011;12763;55.802;37.404;2024-01-11T09:25:42;1.27;;;0.90;;
24619;SDS011;12763;55.802;37.404;2024-01-11T09:28:08;5.43;;;1.10;;
24619;SDS011;12763;55.802;37.404;2024-01-11T09:30:34;1.75;;;1.20;;
24619;SDS011;12763;55.802;37.404;2024-01-11T09:33:00;1.90;;;1.15;;
24619;SDS011;12763;55.802;37.404;2024-01-11T09:35:27;2.28;;;1.10;;
24619;SDS011;12763;55.802;37.404;2024-01-11T09:37:53;1.90;;;1.13;;
24619;SDS011;12763;55.802;37.404;2024-01-11T09:40:19;3.03;;;1.27;;
24619;SDS011;12763;55.802;37.404;2024-01-11T09:42:45;1.30;;;0.98;;
24619;SDS011;12763;55.802;37.404;2024-01-11T09:45:15;1.48;;;1.13;;
24619;SDS011;12763;55.802;37.404;2024-01-11T09:47:45;2.53;;;0.85;;
24619;SDS011;12763;55.802;37.404;2024-01-11T09:50:13;0.80;;;0.80;;
24619;SDS011;12763;55.802;37.404;2024-01-11T09:52:49;0.93;;;0.88;;
24619;SDS011;12763;55.802;37.404;2024-01-11T09:55:18;0.75;;;0.65;;
24619;SDS011;12763;55.802;37.404;2024-01-11T09:57:45;0.90;;;0.90;;
24619;SDS011;12763;55.802;37.404;2024-01-11T10:00:13;2.17;;;1.00;;
24619;SDS011;12763;55.802;37.404;2024-01-11T10:02:47;1.35;;;1.17;;
24619;SDS011;12763;55.802;37.404;2024-01-11T10:05:13;1.13;;;0.80;;
24619;SDS011;12763;55.802;37.404;2024-01-11T10:07:41;1.60;;;1.15;;
24619;SDS011;12763;55.802;37.404;2024-01-11T10:10:08;0.90;;;0.90;;
24619;SDS011;12763;55.802;37.404;2024-01-11T10:12:35;1.80;;;1.55;;
24619;SDS011;12763;55.802;37.404;2024-01-11T10:15:05;1.38;;;1.13;;
24619;SDS011;12763;55.802;37.404;2024-01-11T10:17:36;4.83;;;1.13;;
24619;SDS011;12763;55.802;37.404;2024-01-11T10:20:05;1.35;;;1.13;;
24619;SDS011;12763;55.802;37.404;2024-01-11T10:22:36;1.17;;;0.60;;
24619;SDS011;12763;55.802;37.404;2024-01-11T10:25:09;1.25;;;1.08;;
24619;SDS011;12763;55.802;37.404;2024-01-11T10:27:40;1.38;;;1.10;;
24619;SDS011;12763;55.802;37.404;2024-01-11T10:30:10;1.23;;;1.02;;
24619;SDS011;12763;55.802;37.404;2024-01-11T10:32:44;1.52;;;1.08;;
24619;SDS011;12763;55.802;37.404;2024-01-11T10:35:11;0.80;;;0.80;;
24619;SDS011;12763;55.802;37.404;2024-01-11T10:37:38;1.88;;;1.00;;
24619;SDS011;12763;55.802;37.404;2024-01-11T10:40:07;0.50;;;0.50;;
24619;SDS011;12763;55.802;37.404;2024-01-11T10:42:41;2.05;;;1.45;;
24619;SDS011;12763;55.802;37.404;2024-01-11T10:45:18;1.45;;;0.77;;
24619;SDS011;12763;55.802;37.404;2024-01-11T10:47:55;0.82;;;0.65;;
24619;SDS011;12763;55.802;37.404;2024-01-11T10:50:26;0.57;;;0.57;;
24619;SDS011;12763;55.802;37.404;2024-01-11T10:53:02;2.83;;;0.80;;
24619;SDS011;12763;55.802;37.404;2024-01-11T10:55:33;1.10;;;0.90;;
24619;SDS011;12763;55.802;37.404;2024-01-11T10:58:01;1.58;;;1.05;;
24619;SDS011;12763;55.802;37.404;2024-01-11T11:00:31;1.25;;;1.00;;
24619;SDS011;12763;55.802;37.404;2024-01-11T11:02:58;2.25;;;1.05;;
24619;SDS011;12763;55.802;37.404;2024-01-11T11:05:28;1.17;;;0.75;;
24619;SDS011;12763;55.802;37.404;2024-01-11T11:07:55;0.98;;;0.80;;
24619;SDS011;12763;55.802;37.404;2024-01-11T11:10:23;1.38;;;1.05;;
24619;SDS011;12763;55.802;37.404;2024-01-11T11:12:51;1.77;;;1.23;;
24619;SDS011;12763;55.802;37.404;2024-01-11T11:15:23;1.73;;;1.30;;
24619;SDS011;12763;55.802;37.404;2024-01-11T11:17:49;1.08;;;0.95;;
24619;SDS011;12763;55.802;37.404;2024-01-11T11:20:16;2.17;;;1.88;;
24619;SDS011;12763;55.802;37.404;2024-01-11T11:22:42;1.00;;;0.93;;
24619;SDS011;12763;55.802;37.404;2024-01-11T11:25:09;1.98;;;1.40;;
24619;SDS011;12763;55.802;37.404;2024-01-11T11:27:38;2.40;;;1.15;;
24619;SDS011;12763;55.802;37.404;2024-01-11T11:30:05;3.45;;;1.55;;
24619;SDS011;12763;55.802;37.404;2024-01-11T11:32:35;2.67;;;1.10;;
24619;SDS011;12763;55.802;37.404;2024-01-11T11:35:07;1.02;;;1.00;;
24619;SDS011;12763;55.802;37.404;2024-01-11T11:37:37;2.40;;;1.30;;
24619;SDS011;12763;55.802;37.404;2024-01-11T11:40:04;2.25;;;1.10;;
24619;SDS011;12763;55.802;37.404;2024-01-11T11:42:36;2.22;;;1.63;;
24619;SDS011;12763;55.802;37.404;2024-01-11T11:45:02;2.15;;;1.20;;
24619;SDS011;12763;55.802;37.404;2024-01-11T11:47:34;1.90;;;1.40;;
24619;SDS011;12763;55.802;37.404;2024-01-11T11:52:37;1.50;;;1.15;;
24619;SDS011;12763;55.802;37.404;2024-01-11T11:55:07;3.10;;;1.75;;
24619;SDS011;12763;55.802;37.404;2024-01-11T11:57:37;2.90;;;1.50;;
24619;SDS011;12763;55.802;37.404;2024-01-11T12:00:03;2.90;;;1.40;;
24619;SDS011;12763;55.802;37.404;2024-01-11T12:02:38;4.22;;;1.75;;
24619;SDS011;12763;55.802;37.404;2024-01-11T12:05:05;1.02;;;0.93;;
24619;SDS011;12763;55.802;37.404;2024-01-11T12:07:31;8.68;;;2.40;;
24619;SDS011;12763;55.802;37.404;2024-01-11T12:09:57;8.23;;;2.17;;
24619;SDS011;12763;55.802;37.404;2024-01-11T12:12:23;4.90;;;1.58;;
24619;SDS011;12763;55.802;37.404;2024-01-11T12:14:49;4.63;;;1.40;;
24619;SDS011;12763;55.802;37.404;2024-01-11T12:17:17;1.73;;;1.45;;
24619;SDS011;12763;55.802;37.404;2024-01-11T12:19:43;6.35;;;1.58;;
24619;SDS011;12763;55.802;37.404;2024-01-11T12:22:09;1.33;;;0.82;;
24619;SDS011;12763;55.802;37.404;2024-01-11T12:24:36;2.28;;;1.05;;
24619;SDS011;12763;55.802;37.404;2024-01-11T12:27:02;2.75;;;1.23;;
24619;SDS011;12763;55.802;37.404;2024-01-11T12:29:29;1.25;;;1.00;;
24619;SDS011;12763;55.802;37.404;2024-01-11T12:31:56;5.82;;;1.77;;
24619;SDS011;12763;55.802;37.404;2024-01-11T12:34:24;2.10;;;1.00;;
24619;SDS011;12763;55.802;37.404;2024-01-11T12:36:54;1.02;;;0.93;;
24619;SDS011;12763;55.802;37.404;2024-01-11T12:39:21;2.15;;;1.30;;
24619;SDS011;12763;55.802;37.404;2024-01-11T12:41:50;1.73;;;1.27;;
24619;SDS011;12763;55.802;37.404;2024-01-11T12:44:17;1.92;;;1.10;;
24619;SDS011;12763;55.802;37.404;2024-01-11T12:46:44;1.10;;;1.00;;
24619;SDS011;12763;55.802;37.404;2024-01-11T12:49:13;1.13;;;0.98;;
24619;SDS011;12763;55.802;37.404;2024-01-11T12:51:39;2.45;;;1.50;;
24619;SDS011;12763;55.802;37.404;2024-01-11T12:54:14;1.23;;;1.13;;
24619;SDS011;12763;55.802;37.404;2024-01-11T12:56:41;3.05;;;1.65;;
24619;SDS011;12763;55.802;37.404;2024-01-11T12:59:08;1.42;;;1.25;;
24619;SDS011;12763;55.802;37.404;2024-01-11T13:01:35;2.92;;;1.63;;
24619;SDS011;12763;55.802;37.404;2024-01-11T13:04:03;3.70;;;1.80;;
24619;SDS011;12763;55.802;37.404;2024-01-11T13:06:32;1.90;;;1.13;;
24619;SDS011;12763;55.802;37.404;2024-01-11T13:09:00;2.72;;;1.25;;
24619;SDS011;12763;55.802;37.404;2024-01-11T13:11:27;2.55;;;1.58;;
24619;SDS011;12763;55.802;37.404;2024-01-11T13:13:53;1.63;;;1.30;;
24619;SDS011;12763;55.802;37.404;2024-01-11T13:16:19;2.92;;;1.17;;
24619;SDS011;12763;55.802;37.404;2024-01-11T13:18:46;1.88;;;1.33;;
24619;SDS011;12763;55.802;37.404;2024-01-11T13:21:12;2.95;;;1.55;;
24619;SDS011;12763;55.802;37.404;2024-01-11T13:23:39;1.40;;;1.20;;
24619;SDS011;12763;55.802;37.404;2024-01-11T13:26:06;3.08;;;1.77;;
24619;SDS011;12763;55.802;37.404;2024-01-11T13:28:35;2.30;;;1.65;;
24619;SDS011;12763;55.802;37.404;2024-01-11T13:31:01;4.20;;;1.70;;
24619;SDS011;12763;55.802;37.404;2024-01-11T13:33:28;2.20;;;1.52;;
24619;SDS011;12763;55.802;37.404;2024-01-11T13:35:54;2.17;;;1.42;;
24619;SDS011;12763;55.802;37.404;2024-01-11T13:38:20;3.30;;;1.60;;
24619;SDS011;12763;55.802;37.404;2024-01-11T13:40:46;6.40;;;1.63;;
24619;SDS011;12763;55.802;37.404;2024-01-11T13:43:12;4.35;;;1.80;;
24619;SDS011;12763;55.802;37.404;2024-01-11T13:45:39;4.82;;;1.65;;
24619;SDS011;12763;55.802;37.404;2024-01-11T13:48:05;3.30;;;1.83;;
24619;SDS011;12763;55.802;37.404;2024-01-11T13:50:32;3.92;;;1.98;;
24619;SDS011;12763;55.802;37.404;2024-01-11T13:52:58;2.53;;;2.13;;
24619;SDS011;12763;55.802;37.404;2024-01-11T13:55:26;3.30;;;1.77;;
24619;SDS011;12763;55.802;37.404;2024-01-11T13:57:52;1.25;;;1.15;;
24619;SDS011;12763;55.802;37.404;2024-01-11T14:00:19;3.10;;;1.75;;
24619;SDS011;12763;55.802;37.404;2024-01-11T14:02:46;4.05;;;2.08;;
24619;SDS011;12763;55.802;37.404;2024-01-11T14:05:13;1.50;;;1.23;;
24619;SDS011;12763;55.802;37.404;2024-01-11T14:07:43;2.15;;;1.27;;
24619;SDS011;12763;55.802;37.404;2024-01-11T14:10:11;2.58;;;1.75;;
24619;SDS011;12763;55.802;37.404;2024-01-11T14:12:38;5.38;;;1.90;;
24619;SDS011;12763;55.802;37.404;2024-01-11T14:15:04;6.90;;;1.85;;
24619;SDS011;12763;55.802;37.404;2024-01-11T14:17:32;4.40;;;1.55;;
24619;SDS011;12763;55.802;37.404;2024-01-11T14:19:59;4.10;;;2.03;;
24619;SDS011;12763;55.802;37.404;2024-01-11T14:22:30;3.78;;;1.70;;
24619;SDS011;12763;55.802;37.404;2024-01-11T14:24:56;5.97;;;2.13;;
24619;SDS011;12763;55.802;37.404;2024-01-11T14:27:22;3.97;;;1.33;;
24619;SDS011;12763;55.802;37.404;2024-01-11T14:29:49;1.52;;;1.42;;
24619;SDS011;12763;55.802;37.404;2024-01-11T14:32:15;3.90;;;1.52;;
24619;SDS011;12763;55.802;37.404;2024-01-11T14:34:42;3.47;;;1.88;;
24619;SDS011;12763;55.802;37.404;2024-01-11T14:37:10;5.43;;;1.35;;